Time;durP1;ratioP1;P1;durP2;ratioP2;P2;SDS_P1;SDS_P2;PMS_P1;PMS_P2;Temp;Humidity;BMP_temperature;BMP_pressure;BME280_temperature;BME280_humidity;BME280_pressure;Samples;Min_cycle;Max_cycle;Signal;HPM_P1;HPM_P2
2022/04/20 00:00:04;;;;;;;3.80;3.50;;;;;;;7.85;42.30;100997.69;690631;28;1215;-81
2022/04/20 00:00:32;;;;;;;4.10;3.72;;;;;;;7.81;41.98;100994.06;690570;28;980;-81
2022/04/20 00:00:53;;;;;;;4.40;4.00;;;;;;;7.86;42.18;101002.06;688312;28;874;-81
2022/04/20 00:01:13;;;;;;;4.22;3.83;;;;;;;7.92;41.94;101005.81;685886;28;1291;-81
2022/04/20 00:01:34;;;;;;;3.88;3.50;;;;;;;7.82;42.06;100993.25;690416;28;1540;-81
2022/04/20 00:01:54;;;;;;;3.73;3.43;;;;;;;7.89;41.98;100999.59;698935;28;1281;-81
2022/04/20 00:02:15;;;;;;;4.35;3.95;;;;;;;7.90;42.18;101007.47;697862;28;1113;-82
2022/04/20 00:02:36;;;;;;;4.80;4.30;;;;;;;7.84;42.40;100996.78;694151;28;1164;-81
2022/04/20 00:02:56;;;;;;;5.70;4.30;;;;;;;7.80;42.20;100989.72;687936;28;1250;-81
2022/04/20 00:03:17;;;;;;;6.05;4.07;;;;;;;7.82;42.49;100993.25;691780;28;1460;-81
2022/04/20 00:03:38;;;;;;;6.32;3.97;;;;;;;7.81;42.43;100991.47;690578;28;1354;-81
2022/04/20 00:03:59;;;;;;;5.60;3.90;;;;;;;7.83;42.33;100992.41;693333;28;1294;-81
2022/04/20 00:04:20;;;;;;;4.85;3.70;;;;;;;7.85;42.44;100995.09;694150;28;1396;-81
2022/04/20 00:04:49;;;;;;;4.10;3.70;;;;;;;7.80;42.45;100984.50;690590;28;1922;-81
2022/04/20 00:05:10;;;;;;;4.70;3.90;;;;;;;7.79;42.30;100991.41;690049;28;1649;-81
2022/04/20 00:05:33;;;;;;;4.80;4.00;;;;;;;7.85;42.35;100997.69;693286;28;1709;-81
2022/04/20 00:05:53;;;;;;;4.22;3.83;;;;;;;7.85;42.28;100990.75;686639;28;1099;-81
2022/04/20 00:06:14;;;;;;;4.00;3.70;;;;;;;7.82;42.42;100998.44;687783;28;1209;-81
2022/04/20 00:06:34;;;;;;;3.72;3.42;;;;;;;7.89;42.53;100997.88;690651;28;935;-81
2022/04/20 00:06:55;;;;;;;3.60;3.30;;;;;;;7.83;42.16;100995.03;690725;28;871;-82
2022/04/20 00:07:15;;;;;;;3.70;3.40;;;;;;;7.78;41.98;100986.13;693269;28;1286;-81
2022/04/20 00:07:36;;;;;;;4.15;3.60;;;;;;;7.83;42.58;100989.81;690692;28;1213;-81
2022/04/20 00:07:57;;;;;;;4.63;3.67;;;;;;;7.87;42.43;100989.13;688915;28;1608;-81
2022/04/20 00:08:17;;;;;;;4.95;3.90;;;;;;;7.80;42.40;100984.50;689334;28;1576;-81
2022/04/20 00:08:38;;;;;;;4.47;3.70;;;;;;;7.81;42.40;100991.47;690619;28;1256;-81
2022/04/20 00:08:58;;;;;;;4.10;3.58;;;;;;;7.85;42.32;100998.56;693334;28;1072;-81
2022/04/20 00:09:19;;;;;;;3.90;3.30;;;;;;;7.86;42.42;101009.84;687671;28;1393;-81
2022/04/20 00:09:39;;;;;;;3.50;3.20;;;;;;;7.80;41.94;100992.31;684530;28;1215;-82
2022/04/20 00:10:00;;;;;;;4.00;3.42;;;;;;;7.77;42.36;100985.25;690435;28;1505;-81
2022/04/20 00:10:20;;;;;;;3.90;3.40;;;;;;;7.79;42.31;100991.41;689449;28;1080;-81
2022/04/20 00:10:41;;;;;;;4.68;3.60;;;;;;;7.79;42.00;100987.91;687903;28;1026;-81
2022/04/20 00:11:02;;;;;;;4.00;3.60;;;;;;;7.79;42.46;100993.09;687812;28;1307;-81
2022/04/20 00:11:22;;;;;;;4.10;3.70;;;;;;;7.76;42.23;100998.16;687869;28;1037;-81
2022/04/20 00:11:43;;;;;;;4.20;3.80;;;;;;;7.82;42.49;101009.72;690139;28;1097;-81
2022/04/20 00:12:04;;;;;;;4.10;3.70;;;;;;;7.79;42.11;101001.78;689732;28;1279;-81
2022/04/20 00:12:25;;;;;;;4.25;3.85;;;;;;;7.73;42.07;100993.72;688774;28;1258;-81
2022/04/20 00:12:45;;;;;;;4.00;3.65;;;;;;;7.75;42.21;100996.41;685205;28;1345;-81
2022/04/20 00:13:06;;;;;;;4.00;3.47;;;;;;;7.79;42.17;101003.50;687280;28;1654;-82
2022/04/20 00:13:27;;;;;;;3.93;3.30;;;;;;;7.72;42.23;100991.97;693292;28;1256;-82
2022/04/20 00:13:47;;;;;;;4.43;3.60;;;;;;;7.74;42.43;100989.44;693012;28;1682;-81
2022/04/20 00:14:08;;;;;;;4.57;3.90;;;;;;;7.78;42.04;101002.63;687938;28;1315;-81
2022/04/20 00:14:28;;;;;;;4.90;3.97;;;;;;;7.78;42.18;100999.13;687489;28;1279;-81
2022/04/20 00:14:49;;;;;;;5.43;4.00;;;;;;;7.80;42.14;101002.69;685430;28;1036;-81
2022/04/20 00:15:09;;;;;;;6.67;3.73;;;;;;;7.77;41.95;100994.75;685333;28;1239;-81
2022/04/20 00:15:30;;;;;;;8.18;3.90;;;;;;;7.77;42.23;100998.25;687389;28;931;-81
2022/04/20 00:15:51;;;;;;;7.57;3.70;;;;;;;7.78;42.35;101001.72;687830;28;831;-81
2022/04/20 00:16:11;;;;;;;6.70;4.30;;;;;;;7.76;42.25;100998.16;685057;28;1188;-81
2022/04/20 00:16:32;;;;;;;5.18;4.03;;;;;;;7.72;42.49;100994.56;687980;28;875;-81
2022/04/20 00:16:53;;;;;;;5.00;3.90;;;;;;;7.74;42.13;100994.63;693338;28;1387;-81
2022/04/20 00:17:13;;;;;;;4.70;3.70;;;;;;;7.78;42.01;101006.91;692951;28;1522;-81
2022/04/20 00:17:34;;;;;;;4.50;3.80;;;;;;;7.74;41.84;100987.72;692218;28;1540;-81
2022/04/20 00:17:54;;;;;;;4.10;3.70;;;;;;;7.72;41.82;100991.97;687967;28;1179;-81
2022/04/20 00:18:15;;;;;;;4.03;3.72;;;;;;;7.77;41.91;100999.94;687672;28;1390;-82
2022/04/20 00:18:35;;;;;;;3.90;3.60;;;;;;;7.79;41.75;101003.50;690505;28;1223;-81
2022/04/20 00:18:56;;;;;;;4.00;3.70;;;;;;;7.74;41.99;101002.44;688634;28;1399;-81
2022/04/20 00:19:22;;;;;;;4.10;3.58;;;;;;;7.81;42.02;101007.94;686939;28;1196;-81
2022/04/20 00:19:43;;;;;;;4.50;3.80;;;;;;;7.77;41.92;101005.16;687143;28;1098;-81
2022/04/20 00:20:04;;;;;;;4.40;4.00;;;;;;;7.71;41.88;100990.19;687703;28;1315;-81
2022/04/20 00:20:24;;;;;;;4.38;3.97;;;;;;;7.71;42.04;100989.28;685591;28;1442;-81
2022/04/20 00:20:45;;;;;;;4.35;3.92;;;;;;;7.78;42.12;101013.00;687833;28;867;-81
2022/04/20 00:21:05;;;;;;;4.77;4.23;;;;;;;7.68;41.93;100993.53;687880;28;1150;-81
2022/04/20 00:21:27;;;;;;;4.70;4.30;;;;;;;7.67;42.24;100988.25;690339;28;1445;-81
2022/04/20 00:21:47;;;;;;;4.72;4.32;;;;;;;7.66;42.03;100986.50;690470;28;1176;-81
2022/04/20 00:22:08;;;;;;;4.33;3.93;;;;;;;7.65;41.81;100993.41;689744;28;1293;-81
2022/04/20 00:22:29;;;;;;;4.35;3.85;;;;;;;7.73;41.90;101003.25;684346;28;1192;-81
2022/04/20 00:22:50;;;;;;;4.78;3.80;;;;;;;7.68;42.05;100996.13;685227;28;1190;-81
2022/04/20 00:23:11;;;;;;;4.80;3.70;;;;;;;7.74;42.50;101002.44;685109;28;1113;-81
2022/04/20 00:23:31;;;;;;;4.70;3.57;;;;;;;7.67;42.34;100994.34;685010;28;1863;-81
2022/04/20 00:23:52;;;;;;;6.95;3.45;;;;;;;7.68;42.27;101001.31;687768;28;1588;-81
2022/04/20 00:24:12;;;;;;;6.80;3.60;;;;;;;7.63;42.37;100987.22;687692;28;1028;-81
2022/04/20 00:24:33;;;;;;;6.90;3.70;;;;;;;7.70;42.18;101001.41;684942;28;1931;-81
2022/04/20 00:24:53;;;;;;;4.07;3.67;;;;;;;7.67;42.32;100996.97;685126;28;1184;-81
2022/04/20 00:25:14;;;;;;;3.90;3.50;;;;;;;7.62;42.70;100994.97;690347;28;1281;-81
2022/04/20 00:25:35;;;;;;;6.40;3.83;;;;;;;7.57;42.81;100983.50;690508;28;1269;-81
2022/04/20 00:25:55;;;;;;;6.72;4.03;;;;;;;7.60;42.78;100991.41;687884;28;1186;-81
2022/04/20 00:26:16;;;;;;;7.57;4.20;;;;;;;7.61;42.73;100998.41;684960;28;1367;-81
2022/04/20 00:26:37;;;;;;;5.17;3.77;;;;;;;7.61;42.71;100995.81;687882;28;1059;-81
2022/04/20 00:26:57;;;;;;;5.67;3.60;;;;;;;7.61;42.86;101001.00;690579;28;1083;-81
2022/04/20 00:27:18;;;;;;;4.32;3.40;;;;;;;7.53;42.73;100987.66;687930;28;1624;-81
2022/04/20 00:27:39;;;;;;;4.28;3.70;;;;;;;7.59;43.01;100998.31;685343;28;971;-80
2022/04/20 00:28:00;;;;;;;5.30;3.88;;;;;;;7.62;43.03;101011.44;685247;28;1525;-82
2022/04/20 00:28:21;;;;;;;5.72;4.00;;;;;;;7.53;43.10;100990.25;690338;28;1174;-81
2022/04/20 00:28:41;;;;;;;5.37;3.83;;;;;;;7.57;42.96;101001.69;687680;28;1651;-81
2022/04/20 00:29:02;;;;;;;4.28;3.88;;;;;;;7.57;42.87;101002.56;690476;28;1309;-81
2022/04/20 00:29:22;;;;;;;4.50;4.10;;;;;;;7.53;42.87;100998.97;687709;28;1170;-81
2022/04/20 00:29:43;;;;;;;4.70;4.20;;;;;;;7.50;43.34;100995.34;686698;28;1048;-81
2022/04/20 00:30:06;;;;;;;4.38;3.97;;;;;;;7.53;43.40;101003.25;684930;28;1275;-81
2022/04/20 00:30:26;;;;;;;4.28;3.80;;;;;;;7.49;43.47;100994.44;687749;28;1098;-81
2022/04/20 00:30:47;;;;;;;6.83;3.97;;;;;;;7.45;43.29;100989.03;690528;28;803;-81
2022/04/20 00:31:09;;;;;;;8.57;4.00;;;;;;;7.52;43.34;101014.47;690394;28;1106;-81
2022/04/20 00:31:30;;;;;;;7.45;3.97;;;;;;;7.46;43.38;101003.78;690434;28;1713;-81
2022/04/20 00:31:50;;;;;;;5.63;3.90;;;;;;;7.49;43.65;101015.22;692649;28;1614;-81
2022/04/20 00:32:11;;;;;;;4.20;3.80;;;;;;;7.49;43.61;101009.16;690422;28;1246;-81
2022/04/20 00:32:31;;;;;;;4.40;4.00;;;;;;;7.38;43.50;100998.28;687710;28;1228;-81
2022/04/20 00:32:52;;;;;;;4.40;4.00;;;;;;;7.41;43.57;100995.81;695958;28;1137;-81
2022/04/20 00:33:13;;;;;;;5.05;3.92;;;;;;;7.47;43.74;101010.75;692539;28;1520;-81
2022/04/20 00:33:39;;;;;;;4.60;3.63;;;;;;;7.42;43.51;101007.97;690454;28;854;-81
2022/04/20 00:34:00;;;;;;;4.55;3.80;;;;;;;7.37;43.59;100999.97;690477;28;1613;-81
2022/04/20 00:34:21;;;;;;;4.80;3.83;;;;;;;7.46;43.51;101019.38;682277;28;1474;-81
2022/04/20 00:34:42;;;;;;;7.18;4.13;;;;;;;7.38;43.60;101009.53;690481;28;1175;-81
2022/04/20 00:35:02;;;;;;;6.83;3.77;;;;;;;7.44;44.20;101015.84;688867;28;1087;-82
2022/04/20 00:35:39;;;;;;;6.07;3.70;;;;;;;7.34;44.11;101005.03;693085;28;1428;-81
2022/04/20 00:36:01;;;;;;;4.25;3.70;;;;;;;7.33;44.06;101002.34;693232;28;1521;-81
2022/04/20 00:36:22;;;;;;;4.68;3.90;;;;;;;7.35;43.80;101006.81;684136;28;1339;-81
2022/04/20 00:36:42;;;;;;;5.57;4.07;;;;;;;7.36;44.09;101011.19;685192;28;876;-81
2022/04/20 00:37:03;;;;;;;5.57;4.07;;;;;;;7.31;44.09;101009.19;693241;28;1088;-81
2022/04/20 00:37:24;;;;;;;4.70;4.10;;;;;;;7.39;43.93;101026.88;690340;28;1425;-81
2022/04/20 00:37:45;;;;;;;4.50;4.10;;;;;;;7.35;44.17;101018.88;689457;28;1765;-81
2022/04/20 00:38:05;;;;;;;4.60;4.20;;;;;;;7.29;44.05;101009.13;685057;28;1298;-81
2022/04/20 00:42:08;;;;;;;6.15;4.05;;;;;;;7.26;44.42;101022.84;695889;28;1160;-81
2022/04/20 00:42:31;;;;;;;6.60;3.85;;;;;;;7.22;44.80;101017.44;691849;28;879;-81
2022/04/20 00:42:52;;;;;;;6.03;3.80;;;;;;;7.18;44.90;101005.16;685264;28;1289;-81
2022/04/20 00:43:13;;;;;;;6.25;3.85;;;;;;;7.15;44.55;101003.31;691853;28;1697;-81
2022/04/20 00:43:34;;;;;;;5.15;4.05;;;;;;;7.16;44.90;101009.38;692411;28;1407;-81
2022/04/20 00:43:55;;;;;;;5.00;4.10;;;;;;;7.14;44.65;101011.91;687778;28;1229;-81
2022/04/20 00:44:15;;;;;;;4.55;4.05;;;;;;;7.17;45.00;101017.25;687965;28;1194;-81
2022/04/20 00:44:36;;;;;;;5.38;3.95;;;;;;;7.14;44.68;101011.91;690546;28;1985;-81
2022/04/20 00:44:58;;;;;;;5.65;4.03;;;;;;;7.11;44.72;101006.56;689037;28;1382;-81
2022/04/20 00:45:19;;;;;;;5.78;4.07;;;;;;;7.17;45.00;101021.56;687397;28;1669;-81
2022/04/20 00:45:43;;;;;;;6.00;4.25;;;;;;;7.06;45.03;101006.34;685169;28;866;-81
2022/04/20 00:46:05;;;;;;;5.78;4.40;;;;;;;7.08;45.13;101004.75;687841;28;1437;-81
2022/04/20 00:46:26;;;;;;;5.80;4.30;;;;;;;7.09;45.16;101011.72;689515;28;1397;-81
2022/04/20 00:46:47;;;;;;;6.50;4.20;;;;;;;7.12;45.22;101022.22;687680;28;1333;-81
2022/04/20 00:47:10;;;;;;;7.60;4.20;;;;;;;7.09;45.44;101008.22;693292;28;968;-80
2022/04/20 00:47:34;;;;;;;6.20;4.00;;;;;;;7.06;45.06;101003.75;687786;28;1703;-81
2022/04/20 00:47:58;;;;;;;3.95;3.65;;;;;;;7.15;45.23;101023.16;689824;28;1539;-81
2022/04/20 00:48:20;;;;;;;3.90;3.60;;;;;;;7.11;45.08;101016.94;683478;28;1277;-81
2022/04/20 00:48:42;;;;;;;5.80;3.67;;;;;;;7.05;45.43;101007.19;685020;28;1430;-81
2022/04/20 00:49:05;;;;;;;6.10;3.70;;;;;;;7.08;45.11;101017.72;685077;28;1090;-81
2022/04/20 00:49:26;;;;;;;4.63;3.80;;;;;;;7.09;44.98;101022.09;692471;28;1093;-81
2022/04/20 00:49:48;;;;;;;4.80;3.97;;;;;;;7.05;45.42;101011.50;689833;28;1131;-81
2022/04/20 00:50:10;;;;;;;5.53;4.00;;;;;;;7.06;45.38;101019.34;688475;28;1752;-81
2022/04/20 00:50:31;;;;;;;5.43;4.00;;;;;;;7.00;45.25;101011.25;693273;28;925;-81
2022/04/20 00:50:52;;;;;;;5.85;4.25;;;;;;;7.06;45.37;101021.94;690453;28;1309;-80
2022/04/20 00:51:13;;;;;;;4.90;4.20;;;;;;;7.00;45.46;101011.25;690260;28;1737;-81
2022/04/20 00:51:33;;;;;;;5.00;4.35;;;;;;;7.05;45.47;101014.09;687860;28;906;-81
2022/04/20 00:51:58;;;;;;;5.15;4.18;;;;;;;7.09;45.54;101029.88;687910;28;1213;-80
2022/04/20 00:52:20;;;;;;;5.90;4.30;;;;;;;7.00;45.44;101019.03;693084;28;1145;-81
2022/04/20 00:52:47;;;;;;;5.80;4.22;;;;;;;6.95;45.23;101000.66;693199;28;783;-81
2022/04/20 00:53:07;;;;;;;6.70;4.35;;;;;;;7.06;45.24;101021.06;688829;28;1683;-81
2022/04/20 00:53:28;;;;;;;6.78;4.30;;;;;;;7.05;45.19;101022.75;685309;28;1225;-81
2022/04/20 00:53:49;;;;;;;5.25;4.05;;;;;;;6.98;45.36;101015.50;685160;28;1164;-81
2022/04/20 00:54:12;;;;;;;7.00;4.22;;;;;;;6.95;45.72;101010.19;692841;28;1559;-81
2022/04/20 00:54:32;;;;;;;8.75;4.10;;;;;;;7.01;45.52;101020.84;690344;28;1253;-81
2022/04/20 00:54:54;;;;;;;7.50;4.07;;;;;;;7.00;45.24;101016.44;690240;28;1407;-81
2022/04/20 00:55:15;;;;;;;5.20;3.70;;;;;;;6.97;45.55;101014.63;687699;28;1268;-80
2022/04/20 00:55:36;;;;;;;4.53;3.80;;;;;;;6.98;45.33;101018.09;689965;28;1832;-81
2022/04/20 00:56:02;;;;;;;5.20;3.70;;;;;;;6.99;45.65;101022.47;688489;28;1682;-81
2022/04/20 00:56:22;;;;;;;4.63;3.80;;;;;;;6.93;45.55;101014.41;689459;28;1309;-81
2022/04/20 00:56:43;;;;;;;4.18;3.60;;;;;;;6.97;45.64;101018.91;687816;28;922;-81
2022/04/20 00:57:04;;;;;;;4.32;3.92;;;;;;;6.96;45.34;101019.72;693137;28;1091;-81
2022/04/20 00:57:26;;;;;;;4.65;4.10;;;;;;;6.95;45.58;101015.38;690279;28;1462;-81
2022/04/20 00:57:47;;;;;;;4.95;4.30;;;;;;;6.90;45.49;101012.56;692165;28;965;-81
2022/04/20 00:58:08;;;;;;;5.00;4.50;;;;;;;6.93;45.65;101017.00;690581;28;1119;-80
2022/04/20 00:58:30;;;;;;;5.38;4.40;;;;;;;6.88;45.55;101002.91;686561;28;1290;-81
2022/04/20 00:58:53;;;;;;;5.13;4.07;;;;;;;6.88;45.72;101011.56;695895;28;1235;-81
2022/04/20 00:59:17;;;;;;;4.75;3.80;;;;;;;6.95;45.76;101021.44;693568;28;1263;-80
2022/04/20 00:59:38;;;;;;;4.57;3.88;;;;;;;6.92;45.34;101020.38;687231;28;1133;-81
2022/04/20 01:00:01;;;;;;;5.18;4.10;;;;;;;6.87;45.57;101016.72;689115;28;1473;-81
2022/04/20 01:00:25;;;;;;;5.53;4.25;;;;;;;6.85;45.49;101012.34;688535;28;1233;-81
2022/04/20 01:00:45;;;;;;;5.20;4.70;;;;;;;6.95;45.65;101025.75;687766;28;945;-81
2022/04/20 01:01:08;;;;;;;6.40;4.63;;;;;;;6.91;45.42;101023.81;688064;28;1460;-81
2022/04/20 01:01:30;;;;;;;6.65;4.80;;;;;;;6.90;45.83;101022.94;690417;28;1115;-81
2022/04/20 01:01:51;;;;;;;6.55;4.13;;;;;;;6.89;45.61;101022.84;690228;28;1723;-81
2022/04/20 01:02:14;;;;;;;4.75;4.10;;;;;;;6.88;45.85;101021.06;684458;28;1242;-81
2022/04/20 01:02:34;;;;;;;4.63;4.13;;;;;;;6.90;45.95;101028.13;683414;28;1278;-81
2022/04/20 01:02:55;;;;;;;8.50;4.30;;;;;;;6.88;45.79;101023.69;686636;28;1638;-81
2022/04/20 01:03:16;;;;;;;8.73;4.50;;;;;;;6.89;46.03;101026.34;692035;28;1523;-81
2022/04/20 01:03:57;;;;;;;4.88;4.40;;;;;;;6.79;46.16;101035.41;687840;28;913;-81
2022/04/20 01:04:24;;;;;;;5.10;4.30;;;;;;;6.69;46.16;101039.22;687554;28;1521;-82
2022/04/20 01:05:19;;;;;;;4.78;4.10;;;;;;;6.50;46.56;101027.06;684909;28;1732;-81
2022/04/20 01:05:58;;;;;;;4.70;4.07;;;;;;;6.49;46.99;101025.28;682594;28;1113;-81
2022/04/20 01:06:51;;;;;;;4.75;4.20;;;;;;;6.62;46.88;101025.88;679352;29;1203;-81
2022/04/20 01:07:36;;;;;;;4.30;3.90;;;;;;;6.69;46.40;101027.97;685226;28;1229;-81
2022/04/20 01:08:17;;;;;;;4.30;3.90;;;;;;;6.77;46.41;101026.66;690883;28;1190;-81
2022/04/20 01:09:17;;;;;;;4.93;3.90;;;;;;;6.76;46.44;101029.16;684823;28;1076;-81
2022/04/20 01:09:50;;;;;;;4.47;3.90;;;;;;;6.74;46.38;101026.50;686811;28;1503;-81
2022/04/20 01:10:32;;;;;;;4.18;3.70;;;;;;;6.76;46.76;101026.56;679452;29;1228;-81
2022/04/20 01:11:22;;;;;;;7.90;4.53;;;;;;;6.76;46.84;101032.63;681382;29;1566;-81
2022/04/20 01:37:35;;;;;;;5.20;4.22;;;;;;;5.79;50.19;101033.88;683875;28;1684;-81
2022/04/20 01:37:56;;;;;;;5.55;4.70;;;;;;;5.67;50.17;101018.59;679864;28;1538;-81
2022/04/20 01:38:16;;;;;;;5.30;4.80;;;;;;;5.74;50.37;101028.47;676714;29;1195;-80
2022/04/20 01:38:38;;;;;;;5.35;4.85;;;;;;;5.67;50.22;101024.66;676395;29;1465;-83
2022/04/20 01:38:59;;;;;;;5.00;4.50;;;;;;;5.72;50.64;101028.38;679204;29;1265;-83
2022/04/20 01:39:19;;;;;;;4.67;4.20;;;;;;;5.70;50.46;101031.72;683205;28;1442;-83
2022/04/20 01:39:40;;;;;;;4.70;4.20;;;;;;;5.65;50.79;101026.25;681595;29;1302;-83
2022/04/20 01:40:01;;;;;;;4.63;4.20;;;;;;;5.66;50.83;101022.91;678588;29;1160;-82
2022/04/20 01:40:22;;;;;;;4.80;4.30;;;;;;;5.61;50.45;101012.25;676818;29;1376;-81
2022/04/20 01:40:43;;;;;;;4.23;3.83;;;;;;;5.63;50.67;101019.25;679472;29;1307;-81
2022/04/20 01:41:04;;;;;;;4.57;4.10;;;;;;;5.62;50.70;101015.75;676908;29;1149;-81
2022/04/20 01:41:24;;;;;;;4.57;4.18;;;;;;;5.57;50.98;101012.94;684206;28;1383;-81
2022/04/20 01:41:45;;;;;;;4.72;4.30;;;;;;;5.63;50.77;101012.34;682219;29;1175;-81
2022/04/20 01:42:10;;;;;;;4.93;4.47;;;;;;;5.59;50.90;101016.47;681682;29;1527;-81
2022/04/20 01:42:35;;;;;;;5.18;4.68;;;;;;;5.61;50.76;101025.22;682027;28;1491;-81
2022/04/20 01:43:00;;;;;;;5.28;4.40;;;;;;;5.57;50.81;101018.13;693126;28;1272;-81
2022/04/20 01:43:20;;;;;;;4.77;4.27;;;;;;;5.52;50.93;101011.78;693829;28;1479;-81
2022/04/20 01:44:01;;;;;;;4.68;4.25;;;;;;;5.59;51.01;101023.38;687544;28;1267;-81
2022/04/20 01:44:40;;;;;;;5.60;4.40;;;;;;;5.63;51.13;101033.06;690305;28;1989;-81
2022/04/20 01:45:11;;;;;;;5.97;4.50;;;;;;;5.55;51.18;101019.75;686098;28;1603;-81
2022/04/20 01:45:49;;;;;;;6.22;4.47;;;;;;;5.56;51.37;101018.03;690467;28;855;-81
2022/04/20 01:46:31;;;;;;;4.40;4.00;;;;;;;5.58;51.16;101022.47;688583;28;1129;-81
2022/04/20 01:47:12;;;;;;;5.55;4.50;;;;;;;5.50;50.99;101012.50;690110;28;1303;-81
2022/04/20 01:47:44;;;;;;;5.68;4.70;;;;;;;5.50;51.21;101015.09;684920;28;1153;-81
2022/04/20 01:48:16;;;;;;;5.50;4.30;;;;;;;5.48;51.11;101010.75;683080;28;1619;-81
2022/04/20 01:48:58;;;;;;;6.90;4.50;;;;;;;5.47;51.19;101011.56;687338;28;1476;-81
2022/04/20 01:49:31;;;;;;;5.63;4.70;;;;;;;5.50;51.24;101021.19;687071;28;1116;-81
2022/04/20 01:50:00;;;;;;;4.82;4.32;;;;;;;5.46;51.26;101014.97;687687;28;1126;-81
2022/04/20 01:51:46;;;;;;;5.40;4.10;;;;;;;5.47;51.85;101021.03;687754;28;930;-82
2022/04/20 01:51:50;;;;;;;4.30;3.90;;;;;;;5.48;51.57;101015.91;689748;28;1313;-83
2022/04/20 01:52:22;;;;;;;6.00;4.22;;;;;;;5.47;51.51;101014.13;692683;28;1620;-81
2022/04/20 01:53:01;;;;;;;7.00;4.65;;;;;;;5.50;51.59;101021.19;690982;28;839;-81
2022/04/20 01:53:40;;;;;;;5.32;4.60;;;;;;;5.51;51.58;101022.97;684896;28;1285;-81
2022/04/20 01:54:27;;;;;;;5.97;4.72;;;;;;;5.53;51.61;101031.69;690944;28;1659;-80
2022/04/20 01:54:54;;;;;;;6.28;4.75;;;;;;;5.48;51.83;101017.63;690267;28;1229;-83
2022/04/20 01:55:20;;;;;;;6.25;4.65;;;;;;;5.40;51.64;101018.94;692368;28;1440;-83
2022/04/20 01:56:00;;;;;;;4.60;4.20;;;;;;;5.48;51.85;101033.16;691318;28;1453;-83
2022/04/20 01:56:39;;;;;;;4.75;4.25;;;;;;;5.41;51.65;101020.69;693130;28;939;-83
2022/04/20 01:57:11;;;;;;;7.20;4.60;;;;;;;5.36;52.04;101016.97;683821;28;1236;-83
2022/04/20 01:58:07;;;;;;;4.53;4.13;;;;;;;5.34;51.75;101012.59;684054;28;1156;-83
2022/04/20 01:58:55;;;;;;;5.38;4.13;;;;;;;5.34;51.84;101016.91;679580;29;860;-84
2022/04/20 01:59:34;;;;;;;5.28;4.43;;;;;;;5.35;52.14;101023.84;683616;28;1125;-83
2022/04/20 02:00:08;;;;;;;5.13;4.40;;;;;;;5.37;51.91;101029.09;681438;28;1615;-83
2022/04/20 02:00:34;;;;;;;4.97;4.38;;;;;;;5.26;51.83;101010.41;679448;29;1549;-83
2022/04/20 02:02:34;;;;;;;6.13;4.00;;;;;;;5.26;52.18;101015.56;690380;28;1205;-83
2022/04/20 02:03:15;;;;;;;6.60;4.20;;;;;;;5.30;52.39;101021.03;690575;28;1464;-83
2022/04/20 02:03:42;;;;;;;6.40;4.47;;;;;;;5.29;51.97;101023.53;690360;28;1359;-83
2022/04/20 02:04:06;;;;;;;6.05;4.65;;;;;;;5.26;52.37;101019.06;687801;28;1266;-83
2022/04/20 02:04:29;;;;;;;5.57;4.85;;;;;;;5.31;52.28;101033.16;687377;28;1592;-81
2022/04/20 02:04:49;;;;;;;5.97;5.00;;;;;;;5.30;52.37;101027.88;690212;28;1918;-81
2022/04/20 02:05:13;;;;;;;6.88;4.80;;;;;;;5.32;52.21;101034.94;687536;28;1475;-81
2022/04/20 02:05:36;;;;;;;6.40;4.60;;;;;;;5.24;52.18;101020.69;684919;28;1888;-81
2022/04/20 02:06:22;;;;;;;6.18;4.20;;;;;;;5.32;51.98;101037.53;676154;29;1208;-81
2022/04/20 02:06:47;;;;;;;6.40;4.50;;;;;;;5.22;52.16;101019.72;674872;29;1445;-81
2022/04/20 02:07:16;;;;;;;5.38;4.54;;;;;;;5.26;52.26;101032.00;687395;28;1021;-81
2022/04/20 02:07:41;;;;;;;5.05;4.40;;;;;;;5.18;52.12;101016.09;690227;28;1399;-81
2022/04/20 02:08:02;;;;;;;4.70;4.18;;;;;;;5.18;52.32;101022.94;687683;28;1382;-81
2022/04/20 02:08:41;;;;;;;5.05;4.00;;;;;;;5.19;52.23;101025.63;684767;28;1759;-81
2022/04/20 02:09:13;;;;;;;5.40;4.10;;;;;;;5.18;52.31;101025.53;687585;28;1075;-82
2022/04/20 02:09:36;;;;;;;5.15;4.22;;;;;;;5.16;52.17;101029.75;687245;28;935;-82
2022/04/20 02:10:01;;;;;;;4.95;4.20;;;;;;;5.14;52.35;101020.97;687464;28;1194;-82
2022/04/20 02:10:22;;;;;;;4.40;4.00;;;;;;;5.20;52.31;101030.00;686211;28;1604;-83
2022/04/20 02:10:43;;;;;;;6.70;4.40;;;;;;;5.16;52.57;101019.41;690175;28;1161;-83
2022/04/20 02:11:03;;;;;;;6.80;4.40;;;;;;;5.12;52.23;101013.16;684894;28;1278;-83
2022/04/20 02:11:24;;;;;;;7.60;4.60;;;;;;;5.15;52.57;101023.66;688251;28;1380;-83
2022/04/20 02:11:56;;;;;;;5.32;4.60;;;;;;;5.12;52.15;101022.59;690434;28;866;-83
2022/04/20 02:12:49;;;;;;;4.55;3.70;;;;;;;5.15;52.38;101030.56;681871;29;1748;-83
2022/04/20 02:13:26;;;;;;;5.68;4.20;;;;;;;5.10;52.27;101025.13;684320;28;1486;-83
2022/04/20 02:13:51;;;;;;;5.00;4.28;;;;;;;5.10;52.15;101032.00;685370;28;1033;-83
2022/04/20 02:14:11;;;;;;;5.40;4.40;;;;;;;5.05;52.33;101019.69;695449;28;1309;-83
2022/04/20 02:14:33;;;;;;;5.38;4.32;;;;;;;5.04;52.30;101019.63;687578;28;1214;-83
2022/04/20 02:15:04;;;;;;;4.50;3.92;;;;;;;5.07;52.35;101027.53;690252;28;1199;-83
2022/04/20 02:15:53;;;;;;;7.30;4.35;;;;;;;5.08;52.69;101029.31;686348;28;1149;-80
2022/04/20 02:16:31;;;;;;;5.10;4.60;;;;;;;5.03;52.75;101020.44;689555;28;1137;-83
2022/04/20 02:17:06;;;;;;;4.45;4.05;;;;;;;5.06;52.48;101031.84;687630;28;1133;-83
2022/04/20 02:17:37;;;;;;;4.25;3.90;;;;;;;5.08;52.74;101031.91;685478;28;1814;-83
2022/04/20 02:17:59;;;;;;;4.68;4.25;;;;;;;5.05;52.61;101024.84;688255;28;1366;-82
2022/04/20 02:18:40;;;;;;;5.65;4.60;;;;;;;5.02;52.83;101021.19;685094;28;1333;-83
2022/04/20 02:19:23;;;;;;;5.68;4.00;;;;;;;5.03;52.70;101015.25;690397;28;1507;-83
2022/04/20 02:19:48;;;;;;;5.60;3.80;;;;;;;4.99;52.82;101015.88;690458;28;1308;-83
2022/04/20 02:20:12;;;;;;;5.35;3.88;;;;;;;5.01;52.64;101022.00;693474;28;1282;-83
2022/04/20 02:20:33;;;;;;;4.40;4.00;;;;;;;5.03;52.67;101017.84;688186;28;1071;-83
2022/04/20 02:20:54;;;;;;;4.70;4.30;;;;;;;5.01;52.63;101025.50;688206;28;1157;-83
2022/04/20 02:21:15;;;;;;;5.20;4.70;;;;;;;5.00;53.06;101028.00;687997;28;1341;-83
2022/04/20 02:21:36;;;;;;;5.10;4.53;;;;;;;4.97;52.75;101020.09;685292;28;1252;-83
2022/04/20 02:21:58;;;;;;;5.20;4.50;;;;;;;4.97;52.87;101017.50;690951;28;839;-83
2022/04/20 02:22:18;;;;;;;4.82;4.43;;;;;;;4.94;52.71;101015.63;687970;28;1048;-82
2022/04/20 02:22:39;;;;;;;4.80;4.30;;;;;;;4.99;52.95;101021.06;682755;29;1248;-83
2022/04/20 02:23:00;;;;;;;4.80;4.17;;;;;;;5.00;53.18;101028.00;685622;28;736;-83
2022/04/20 02:23:20;;;;;;;4.63;4.05;;;;;;;4.97;53.09;101022.66;687930;28;1529;-83
2022/04/20 02:24:01;;;;;;;4.35;3.95;;;;;;;5.03;52.86;101029.06;690350;28;1145;-82
2022/04/20 02:24:21;;;;;;;4.60;4.10;;;;;;;4.96;53.13;101021.75;689450;28;1641;-83
2022/04/20 02:24:42;;;;;;;4.65;4.15;;;;;;;4.90;52.85;101011.97;690739;28;1965;-83
2022/04/20 02:25:03;;;;;;;5.00;4.25;;;;;;;4.95;52.96;101024.28;687983;28;1141;-83
2022/04/20 02:25:24;;;;;;;4.78;4.10;;;;;;;4.96;52.96;101026.06;682054;28;1140;-82
2022/04/20 02:25:45;;;;;;;5.85;4.30;;;;;;;4.91;52.90;101012.88;685500;28;972;-83
2022/04/20 02:26:06;;;;;;;5.00;4.10;;;;;;;4.90;52.91;101017.16;690760;28;1379;-83
2022/04/20 02:26:26;;;;;;;5.95;4.20;;;;;;;4.96;53.24;101028.66;690664;28;1229;-82
2022/04/20 02:26:47;;;;;;;5.00;4.20;;;;;;;4.91;53.27;101018.94;693578;28;1132;-82
2022/04/20 02:27:11;;;;;;;5.03;4.18;;;;;;;4.88;52.70;101016.19;690337;28;1310;-83
2022/04/20 02:27:31;;;;;;;5.00;4.10;;;;;;;4.93;53.01;101027.66;682780;28;1193;-82
2022/04/20 02:27:52;;;;;;;5.60;4.20;;;;;;;4.87;53.26;101011.81;690796;28;1071;-83
2022/04/20 02:28:12;;;;;;;6.38;4.60;;;;;;;4.88;53.11;101013.59;690734;28;1242;-83
2022/04/20 02:28:33;;;;;;;6.50;4.90;;;;;;;4.90;53.42;101021.41;690973;28;986;-82
2022/04/20 02:28:53;;;;;;;7.35;4.80;;;;;;;4.92;53.16;101018.13;685404;28;1044;-83
2022/04/20 02:29:14;;;;;;;6.35;4.40;;;;;;;4.85;53.27;101010.81;690527;28;1471;-83
2022/04/20 02:29:37;;;;;;;5.40;3.90;;;;;;;4.87;52.88;101022.16;694958;28;1700;-83
2022/04/20 02:29:57;;;;;;;4.90;4.13;;;;;;;4.90;53.02;101018.84;693710;28;1373;-83
2022/04/20 02:30:18;;;;;;;5.15;4.30;;;;;;;4.89;53.15;101025.72;693293;28;1361;-83
2022/04/20 02:30:38;;;;;;;5.20;4.50;;;;;;;4.93;53.39;101032.81;687891;28;1217;-83
2022/04/20 02:30:59;;;;;;;4.80;4.40;;;;;;;4.86;53.08;101019.50;687811;28;1667;-83